Terminal Aerodrome Forecast
Issued by NWS Dallas/Fort Worth, TX

Home | Current Version | Previous Version | Text Only | Print | Product List | Glossary On
Versions: 1 2 3 4 5 6 7 8 9 10 11 12 13 14 15 16 17 18 19 20 21 22 23 24 25 26 27 28 29
000
FTUS44 KFWD 280500
TAFDFW
TAF
KDFW 280532Z 2806/2912 34014KT P6SM SCT080 OVC200
     FM281200 34007KT P6SM BKN090 OVC150
     FM282000 35004KT P6SM FEW120
     FM290000 14003KT P6SM FEW250=

USA.gov is the U.S. government's official web portal to all federal, state and local government web resources and services.